createdAt,value
2023-02-06T00:01:04.006Z,0.03
2023-02-06T00:04:06.621Z,-0.15
2023-02-06T00:07:08.970Z,0.07
2023-02-06T00:10:11.555Z,-0.09
2023-02-06T00:13:13.867Z,0.11
2023-02-06T00:16:29.672Z,-0.06
2023-02-06T00:19:31.974Z,-0.20
2023-02-06T00:22:35.222Z,-0.06
2023-02-06T00:25:37.720Z,-0.04
2023-02-06T00:28:41.054Z,-0.20
2023-02-06T00:31:43.457Z,-0.32
2023-02-06T00:34:46.081Z,-0.11
2023-02-06T00:37:48.814Z,-0.23
2023-02-06T00:40:51.524Z,-0.16
2023-02-06T00:43:53.822Z,-0.38
2023-02-06T00:46:59.222Z,-0.14
2023-02-06T00:50:04.182Z,-0.38
2023-02-06T00:53:06.789Z,-0.29
2023-02-06T00:56:09.099Z,-0.23
2023-02-06T00:59:11.706Z,-0.28
2023-02-06T01:02:14.825Z,-0.56
2023-02-06T01:05:17.790Z,-0.36
2023-02-06T01:08:20.184Z,-0.37
2023-02-06T01:11:25.285Z,-0.69
2023-02-06T01:14:28.405Z,-0.73
2023-02-06T01:17:33.111Z,-0.56
2023-02-06T01:20:35.717Z,-0.50
2023-02-06T01:23:39.631Z,-0.45
2023-02-06T01:26:41.956Z,-0.42
2023-02-06T01:29:44.574Z,-0.38
2023-02-06T01:32:46.955Z,-0.48
2023-02-06T01:35:56.915Z,-0.42
2023-02-06T01:38:59.254Z,-0.80
2023-02-06T01:42:02.393Z,-0.88
2023-02-06T01:45:26.111Z,-0.65
2023-02-06T01:48:51.025Z,-0.60
2023-02-06T01:52:04.281Z,-0.58
2023-02-06T01:55:07.195Z,-0.63
2023-02-06T01:58:13.840Z,-0.70
2023-02-06T02:01:17.158Z,-0.72
2023-02-06T02:04:22.768Z,-0.93
2023-02-06T02:07:28.999Z,-0.70
2023-02-06T02:10:33.343Z,-0.87
2023-02-06T02:13:38.461Z,-0.56
2023-02-06T02:17:29.605Z,-0.58
2023-02-06T02:21:08.425Z,-0.61
2023-02-06T02:24:23.529Z,-0.68
2023-02-06T02:27:53.200Z,-0.57
2023-02-06T02:31:31.757Z,-0.51
2023-02-06T02:34:43.282Z,-0.74
2023-02-06T02:37:45.636Z,-0.70
2023-02-06T02:40:58.214Z,-0.63
2023-02-06T02:44:19.462Z,-0.72
2023-02-06T02:47:29.987Z,-0.74
2023-02-06T02:50:33.272Z,-0.88
2023-02-06T02:53:36.541Z,-0.92
2023-02-06T02:56:38.980Z,-0.66
2023-02-06T02:59:46.149Z,-0.85
2023-02-06T03:02:50.493Z,-0.68
2023-02-06T03:06:20.442Z,-0.80
2023-02-06T03:09:39.262Z,-0.95
2023-02-06T03:12:52.876Z,-0.76
2023-02-06T03:16:14.383Z,-0.80
2023-02-06T03:19:23.936Z,-0.67
2023-02-06T03:22:28.840Z,-0.63
2023-02-06T03:25:36.499Z,-0.76
2023-02-06T03:28:44.925Z,-0.66
2023-02-06T03:31:53.223Z,-0.67
2023-02-06T03:34:59.992Z,-0.51
2023-02-06T03:38:04.836Z,-0.56
2023-02-06T03:41:08.277Z,-0.75
2023-02-06T03:44:15.424Z,-0.60
2023-02-06T03:47:19.065Z,-0.74
2023-02-06T03:50:22.840Z,-0.70
2023-02-06T03:53:26.418Z,-0.71
2023-02-06T03:56:32.825Z,-0.73
2023-02-06T03:59:35.068Z,-0.78
2023-02-06T04:02:38.867Z,-1.05
2023-02-06T04:05:41.788Z,-0.90
2023-02-06T04:08:44.079Z,-0.87
2023-02-06T04:11:46.673Z,-0.93
2023-02-06T04:14:49.456Z,-0.77
2023-02-06T04:18:00.142Z,-0.73
2023-02-06T04:21:07.288Z,-0.91
2023-02-06T04:24:09.948Z,-0.96
2023-02-06T04:27:14.198Z,-0.72
2023-02-06T04:30:17.981Z,-0.74
2023-02-06T04:33:20.465Z,-0.85
2023-02-06T04:36:23.187Z,-0.83
2023-02-06T04:39:26.193Z,-0.96
2023-02-06T04:42:28.775Z,-0.87
2023-02-06T04:45:31.077Z,-0.89
2023-02-06T04:48:33.725Z,-1.01
2023-02-06T04:51:36.454Z,-1.04
2023-02-06T04:54:39.080Z,-0.89
2023-02-06T04:57:41.849Z,-1.14
2023-02-06T05:00:44.458Z,-0.88
2023-02-06T05:03:47.202Z,-0.94
2023-02-06T05:06:49.804Z,-0.88
2023-02-06T05:09:52.078Z,-0.98
2023-02-06T05:12:56.110Z,-1.11
2023-02-06T05:16:04.198Z,-0.99
2023-02-06T05:19:06.828Z,-1.05
2023-02-06T05:22:09.112Z,-1.09
2023-02-06T05:25:11.762Z,-0.91
2023-02-06T05:28:14.083Z,-0.86
2023-02-06T05:31:19.985Z,-1.23
2023-02-06T05:34:22.566Z,-1.02
2023-02-06T05:37:25.130Z,-0.94
2023-02-06T05:40:27.503Z,-1.22
2023-02-06T05:43:30.290Z,-0.98
2023-02-06T05:46:33.203Z,-1.17
2023-02-06T05:49:35.863Z,-1.27
2023-02-06T05:52:38.160Z,-1.15
2023-02-06T05:55:40.721Z,-0.99
2023-02-06T05:58:43.069Z,-1.21
2023-02-06T06:01:45.662Z,-1.31
2023-02-06T06:04:48.278Z,-1.08
2023-02-06T06:07:50.594Z,-1.04
2023-02-06T06:10:53.233Z,-0.99
2023-02-06T06:13:55.728Z,-0.93
2023-02-06T06:16:58.332Z,-1.17
2023-02-06T06:20:00.801Z,-0.93
2023-02-06T06:23:03.425Z,-0.92
2023-02-06T06:26:05.808Z,-1.00
2023-02-06T06:29:08.610Z,-0.73
2023-02-06T06:32:11.140Z,-0.66
2023-02-06T06:35:13.754Z,-0.83
2023-02-06T06:38:16.125Z,-0.64
2023-02-06T06:41:18.757Z,-0.76
2023-02-06T06:44:21.322Z,-0.68
2023-02-06T06:47:23.977Z,-0.68
2023-02-06T06:50:26.457Z,-0.72
2023-02-06T06:53:29.037Z,-0.54
2023-02-06T06:56:31.345Z,-0.60
2023-02-06T06:59:33.938Z,-0.55
2023-02-06T07:02:36.592Z,-0.50
2023-02-06T07:05:39.407Z,-0.50
2023-02-06T07:08:42.339Z,-0.42
2023-02-06T07:11:44.952Z,-0.46
2023-02-06T07:14:47.447Z,-0.56
2023-02-06T07:17:50.172Z,-0.48
2023-02-06T07:20:52.513Z,-0.40
2023-02-06T07:23:55.395Z,-0.40
2023-02-06T07:26:59.389Z,-0.51
2023-02-06T07:30:02.060Z,-0.33
2023-02-06T07:33:05.533Z,-0.35
2023-02-06T07:36:13.403Z,-0.54
2023-02-06T07:39:15.737Z,-0.16
2023-02-06T07:42:18.950Z,-0.15
2023-02-06T07:45:24.896Z,-0.15
2023-02-06T07:48:28.669Z,0.01
2023-02-06T07:51:31.051Z,0.14
2023-02-06T07:54:33.795Z,0.31
2023-02-06T07:57:36.663Z,0.30
2023-02-06T08:00:40.667Z,0.81
2023-02-06T08:03:43.165Z,1.23
2023-02-06T08:06:45.819Z,1.63
2023-02-06T08:09:49.034Z,2.01
2023-02-06T08:12:51.384Z,2.17
2023-02-06T08:15:54.197Z,2.34
2023-02-06T08:18:56.684Z,2.56
2023-02-06T08:21:59.414Z,3.02
2023-02-06T08:25:01.798Z,3.36
2023-02-06T08:28:19.500Z,3.80
2023-02-06T08:31:27.102Z,4.05
2023-02-06T08:34:30.586Z,4.23
2023-02-06T08:37:33.516Z,4.26
2023-02-06T08:40:36.008Z,4.83
2023-02-06T08:43:38.669Z,5.02
2023-02-06T08:46:41.672Z,6.00
2023-02-06T08:49:44.312Z,6.41
2023-02-06T08:52:46.685Z,7.01
2023-02-06T08:55:49.409Z,7.64
2023-02-06T08:58:51.997Z,8.05
2023-02-06T09:01:54.884Z,8.46
2023-02-06T09:04:57.179Z,8.99
2023-02-06T09:08:01.172Z,9.03
2023-02-06T09:11:12.247Z,9.39
2023-02-06T09:14:16.990Z,9.30
2023-02-06T09:17:19.353Z,9.67
2023-02-06T09:20:22.566Z,10.23
2023-02-06T09:23:24.962Z,10.29
2023-02-06T09:26:33.606Z,10.64
2023-02-06T09:29:37.663Z,10.57
2023-02-06T09:32:40.799Z,10.81
2023-02-06T09:35:43.257Z,10.43
2023-02-06T09:38:48.899Z,10.34
2023-02-06T09:41:55.247Z,10.59
2023-02-06T09:45:18.278Z,11.12
2023-02-06T09:48:25.055Z,11.64
2023-02-06T09:51:49.892Z,12.09
2023-02-06T09:55:07.370Z,12.35
2023-02-06T09:58:23.923Z,12.62
2023-02-06T10:01:34.808Z,12.56
2023-02-06T10:04:59.704Z,13.06
2023-02-06T10:08:19.698Z,13.48
2023-02-06T10:11:54.880Z,14.04
2023-02-06T10:15:34.858Z,14.20
2023-02-06T10:19:09.658Z,14.52
2023-02-06T10:22:12.721Z,14.09
2023-02-06T10:25:29.196Z,13.33
2023-02-06T10:28:35.472Z,12.99
2023-02-06T10:31:41.236Z,12.78
2023-02-06T10:35:17.471Z,13.30
2023-02-06T10:38:51.554Z,13.67
2023-02-06T10:42:01.167Z,13.69
2023-02-06T10:45:24.022Z,13.15
2023-02-06T10:48:36.285Z,12.89
2023-02-06T10:51:44.800Z,11.83
2023-02-06T10:54:54.862Z,10.86
2023-02-06T10:58:18.882Z,10.23
2023-02-06T11:01:26.606Z,9.79
2023-02-06T11:04:44.543Z,9.81
2023-02-06T11:07:51.538Z,9.89
2023-02-06T11:10:54.927Z,9.97
2023-02-06T11:14:25.339Z,9.61
2023-02-06T11:17:28.527Z,9.71
2023-02-06T11:20:34.286Z,9.26
2023-02-06T11:23:37.343Z,9.22
2023-02-06T11:26:46.963Z,9.37
2023-02-06T11:29:52.202Z,9.09
2023-02-06T11:33:20.226Z,9.34
2023-02-06T11:36:29.544Z,9.34
2023-02-06T11:39:33.411Z,9.03
2023-02-06T11:42:38.000Z,8.86
2023-02-06T11:45:41.220Z,8.69
2023-02-06T11:49:00.641Z,8.67
2023-02-06T11:52:04.014Z,8.40
2023-02-06T11:55:20.175Z,7.95
2023-02-06T11:58:26.372Z,8.24
2023-02-06T12:01:38.577Z,7.91
2023-02-06T12:04:41.570Z,7.92
2023-02-06T12:08:16.002Z,8.21
2023-02-06T12:11:46.130Z,8.10
2023-02-06T12:14:55.135Z,8.30
2023-02-06T12:18:03.815Z,8.49
2023-02-06T12:21:53.737Z,8.66
2023-02-06T12:24:58.009Z,8.52
2023-02-06T12:28:24.911Z,8.14
2023-02-06T12:31:59.158Z,7.87
2023-02-06T12:35:14.469Z,7.90
2023-02-06T12:38:26.380Z,7.76
2023-02-06T12:41:47.193Z,7.54
2023-02-06T12:44:52.673Z,7.43
2023-02-06T12:48:04.148Z,7.24
2023-02-06T12:51:15.429Z,7.12
2023-02-06T12:54:20.478Z,7.28
2023-02-06T12:57:27.363Z,7.15
2023-02-06T13:00:35.552Z,7.02
2023-02-06T13:03:54.526Z,6.79
2023-02-06T13:07:05.675Z,6.80
2023-02-06T13:10:16.548Z,6.60
2023-02-06T13:13:49.641Z,6.38
2023-02-06T13:17:11.820Z,6.50
2023-02-06T13:20:16.953Z,6.54
2023-02-06T13:23:24.282Z,6.81
2023-02-06T13:27:08.425Z,6.63
2023-02-06T13:30:40.133Z,7.17
2023-02-06T13:33:55.428Z,7.24
2023-02-06T13:37:37.455Z,7.19
2023-02-06T13:40:39.771Z,6.97
2023-02-06T13:43:42.560Z,6.93
2023-02-06T13:47:00.270Z,6.67
2023-02-06T13:50:32.377Z,6.53
2023-02-06T13:53:43.542Z,6.34
2023-02-06T13:57:16.941Z,6.17
2023-02-06T14:00:21.517Z,5.85
2023-02-06T14:03:29.525Z,5.55
2023-02-06T14:06:43.988Z,5.23
2023-02-06T14:10:05.246Z,4.94
2023-02-06T14:13:28.472Z,4.75
2023-02-06T14:16:42.986Z,4.37
2023-02-06T14:20:16.191Z,4.34
2023-02-06T14:24:06.896Z,4.08
2023-02-06T14:27:37.367Z,3.88
2023-02-06T14:30:59.080Z,3.80
2023-02-06T14:34:38.859Z,3.70
2023-02-06T14:38:09.647Z,3.35
2023-02-06T14:41:12.352Z,3.33
2023-02-06T14:44:21.433Z,3.19
2023-02-06T14:47:33.076Z,3.11
2023-02-06T14:50:40.497Z,3.17
2023-02-06T14:53:52.642Z,2.90
2023-02-06T14:56:56.933Z,2.89
2023-02-06T15:00:06.432Z,2.76
2023-02-06T15:03:16.565Z,2.69
2023-02-06T15:06:34.479Z,2.66
2023-02-06T15:09:43.983Z,2.58
2023-02-06T15:12:53.824Z,2.48
2023-02-06T15:15:57.101Z,2.52
2023-02-06T15:19:17.252Z,2.30
2023-02-06T15:22:29.814Z,2.21
2023-02-06T15:26:10.336Z,2.25
2023-02-06T15:29:26.988Z,2.19
2023-02-06T15:32:33.313Z,1.98
2023-02-06T15:35:41.436Z,2.23
2023-02-06T15:38:43.911Z,1.81
2023-02-06T15:41:51.418Z,2.09
2023-02-06T15:44:54.157Z,1.82
2023-02-06T15:47:58.749Z,1.89
2023-02-06T15:51:22.258Z,1.76
2023-02-06T15:54:27.131Z,1.97
2023-02-06T15:57:34.044Z,1.71
2023-02-06T16:00:37.792Z,1.58
2023-02-06T16:03:41.657Z,1.70
2023-02-06T16:06:58.699Z,1.60
2023-02-06T16:10:04.266Z,1.75
2023-02-06T16:13:17.130Z,1.83
2023-02-06T16:16:22.895Z,1.73
2023-02-06T16:19:40.869Z,1.59
2023-02-06T16:22:43.808Z,1.73
2023-02-06T16:25:49.158Z,1.57
2023-02-06T16:28:57.294Z,1.76
2023-02-06T16:32:02.662Z,1.73
2023-02-06T16:35:05.672Z,1.75
2023-02-06T16:38:10.260Z,1.70
2023-02-06T16:41:26.582Z,1.67
2023-02-06T16:44:43.799Z,1.56
2023-02-06T16:47:47.436Z,1.37
2023-02-06T16:50:49.846Z,1.55
2023-02-06T16:53:53.040Z,1.55
2023-02-06T16:56:57.503Z,1.48
2023-02-06T17:00:00.566Z,1.41
2023-02-06T17:03:03.076Z,1.31
2023-02-06T17:06:06.590Z,1.26
2023-02-06T17:09:11.058Z,1.41
2023-02-06T17:12:16.720Z,1.50
2023-02-06T17:15:19.797Z,1.48
2023-02-06T17:18:23.946Z,1.47
2023-02-06T17:21:28.351Z,1.26
2023-02-06T17:24:31.007Z,1.22
2023-02-06T17:27:33.379Z,1.38
2023-02-06T17:30:38.162Z,1.43
2023-02-06T17:33:40.822Z,1.37
2023-02-06T17:36:45.228Z,1.30
2023-02-06T17:39:51.949Z,1.34
2023-02-06T17:42:55.431Z,1.30
2023-02-06T17:45:57.776Z,1.17
2023-02-06T17:49:00.428Z,1.28
2023-02-06T17:52:02.914Z,1.03
2023-02-06T17:55:05.778Z,1.08
2023-02-06T17:58:08.457Z,1.11
2023-02-06T18:01:17.583Z,1.18
2023-02-06T18:04:21.371Z,1.05
2023-02-06T18:07:23.683Z,1.14
2023-02-06T18:10:26.800Z,1.14
2023-02-06T18:13:29.143Z,0.92
2023-02-06T18:16:31.981Z,1.13
2023-02-06T18:19:41.785Z,0.94
2023-02-06T18:22:45.040Z,0.98
2023-02-06T18:25:47.478Z,1.12
2023-02-06T18:28:50.228Z,1.12
2023-02-06T18:31:52.653Z,1.13
2023-02-06T18:34:55.626Z,1.31
2023-02-06T18:37:57.986Z,0.99
2023-02-06T18:41:05.849Z,1.10
2023-02-06T18:44:09.891Z,1.06
2023-02-06T18:47:14.802Z,1.00
2023-02-06T18:50:20.384Z,1.01
2023-02-06T18:53:23.089Z,1.09
2023-02-06T18:56:25.985Z,0.89
2023-02-06T18:59:29.141Z,0.92
2023-02-06T19:02:31.599Z,1.05
2023-02-06T19:05:37.468Z,0.96
2023-02-06T19:08:42.890Z,0.73
2023-02-06T19:12:32.145Z,0.80
2023-02-06T19:15:49.260Z,0.68
2023-02-06T19:18:57.886Z,0.91
2023-02-06T19:22:05.172Z,0.88
2023-02-06T19:25:12.600Z,0.63
2023-02-06T19:28:16.812Z,0.65
2023-02-06T19:31:26.493Z,0.76
2023-02-06T19:34:28.986Z,0.72
2023-02-06T19:37:31.886Z,0.61
2023-02-06T19:40:36.211Z,0.82
2023-02-06T19:43:40.182Z,0.83
2023-02-06T19:46:42.704Z,0.82
2023-02-06T19:49:45.442Z,0.52
2023-02-06T19:52:47.982Z,0.59
2023-02-06T19:55:50.696Z,0.66
2023-02-06T19:58:59.735Z,0.26
2023-02-06T20:02:02.959Z,0.35
2023-02-06T20:05:05.902Z,0.56
2023-02-06T20:08:08.546Z,0.45
2023-02-06T20:11:20.193Z,0.41
2023-02-06T20:14:23.952Z,0.50
2023-02-06T20:17:27.012Z,0.46
2023-02-06T20:20:29.397Z,0.40
2023-02-06T20:23:37.501Z,0.26
2023-02-06T20:26:42.631Z,0.38
2023-02-06T20:29:46.660Z,0.14
2023-02-06T20:32:49.223Z,0.30
2023-02-06T20:35:51.915Z,0.29
2023-02-06T20:38:57.422Z,0.30
2023-02-06T20:42:00.565Z,0.29
2023-02-06T20:45:03.052Z,0.19
2023-02-06T20:48:05.901Z,0.15
2023-02-06T20:51:08.234Z,0.22
2023-02-06T20:54:12.331Z,0.10
2023-02-06T20:57:15.460Z,0.35
2023-02-06T21:00:18.388Z,0.14
2023-02-06T21:03:21.106Z,0.25
2023-02-06T21:06:24.219Z,0.04
2023-02-06T21:09:26.819Z,0.09
2023-02-06T21:12:29.558Z,0.18
2023-02-06T21:15:31.950Z,-0.23
2023-02-06T21:18:34.711Z,-0.36
2023-02-06T21:21:37.597Z,-0.08
2023-02-06T21:24:40.261Z,0.00
2023-02-06T21:27:42.610Z,0.02
2023-02-06T21:30:46.015Z,-0.02
2023-02-06T21:33:49.539Z,0.20
2023-02-06T21:36:53.804Z,0.00
2023-02-06T21:39:56.076Z,0.08
2023-02-06T21:42:58.646Z,0.13
2023-02-06T21:46:01.305Z,0.16
2023-02-06T21:49:06.366Z,0.02
2023-02-06T21:52:08.704Z,0.21
2023-02-06T21:55:11.739Z,0.15
2023-02-06T21:58:17.305Z,0.04
2023-02-06T22:01:21.875Z,0.20
2023-02-06T22:04:24.583Z,0.12
2023-02-06T22:07:26.935Z,0.21
2023-02-06T22:10:29.628Z,-0.06
2023-02-06T22:13:31.935Z,0.05
2023-02-06T22:16:34.673Z,-0.14
2023-02-06T22:19:37.791Z,0.04
2023-02-06T22:22:41.186Z,-0.24
2023-02-06T22:25:50.124Z,-0.13
2023-02-06T22:28:52.876Z,0.07
2023-02-06T22:31:55.141Z,-0.07
2023-02-06T22:35:01.032Z,0.05
2023-02-06T22:38:03.373Z,-0.01
2023-02-06T22:41:08.301Z,0.04
2023-02-06T22:44:12.540Z,0.10
2023-02-06T22:47:15.228Z,0.09
2023-02-06T22:50:17.696Z,0.08
2023-02-06T22:53:33.824Z,-0.15
2023-02-06T22:56:38.324Z,-0.05
2023-02-06T22:59:41.020Z,0.10
2023-02-06T23:02:43.679Z,0.02
2023-02-06T23:05:46.426Z,-0.14
2023-02-06T23:08:49.109Z,0.01
2023-02-06T23:11:52.876Z,-0.10
2023-02-06T23:14:56.377Z,-0.03
2023-02-06T23:17:59.007Z,-0.13
2023-02-06T23:21:10.876Z,-0.17
2023-02-06T23:24:14.940Z,-0.24
2023-02-06T23:27:19.659Z,-0.07
2023-02-06T23:30:22.297Z,-0.17
2023-02-06T23:33:25.287Z,-0.37
2023-02-06T23:36:28.908Z,-0.49
2023-02-06T23:39:31.270Z,-0.25
2023-02-06T23:42:34.630Z,-0.41
2023-02-06T23:45:37.555Z,-0.42
2023-02-06T23:48:40.690Z,-0.35
2023-02-06T23:51:43.120Z,-0.47
2023-02-06T23:54:45.748Z,-0.25
2023-02-06T23:57:48.182Z,-0.41
